Time;durP1;ratioP1;P1;durP2;ratioP2;P2;SDS_P1;SDS_P2;PMS_P1;PMS_P2;Temp;Humidity;BMP_temperature;BMP_pressure;BME280_temperature;BME280_humidity;BME280_pressure;Samples;Min_cycle;Max_cycle;Signal;HPM_P1;HPM_P2
2023/10/21 00:03:43;;;;;;;6.88;2.47;;;18.40;94.50;;;17.19;83.36;98261.34;10306605;28;96463;-84
2023/10/21 00:08:46;;;;;;;9.82;2.50;;;18.40;94.50;;;17.21;83.44;98261.88;10321257;28;97298;-85
2023/10/21 00:13:50;;;;;;;5.55;2.40;;;18.40;94.80;;;17.26;83.50;98271.84;10347447;28;96567;-85
2023/10/21 00:18:54;;;;;;;8.48;2.67;;;18.50;94.90;;;17.25;83.29;98256.81;10306695;28;96561;-85
2023/10/21 00:23:57;;;;;;;7.30;2.85;;;18.50;94.80;;;17.28;82.81;98281.28;10296027;28;96580;-84
2023/10/21 00:29:01;;;;;;;7.60;2.85;;;18.50;94.80;;;17.30;83.12;98281.03;10327334;28;96640;-84
2023/10/21 00:34:04;;;;;;;14.07;4.07;;;18.60;95.00;;;17.29;82.86;98285.59;10333012;28;96610;-84
2023/10/21 00:39:10;;;;;;;9.85;3.40;;;18.50;95.00;;;17.27;82.67;98263.56;10314531;28;96588;-84
2023/10/21 00:44:14;;;;;;;8.30;2.75;;;18.50;95.10;;;17.26;83.23;98261.94;10304273;28;96660;-84
2023/10/21 00:49:18;;;;;;;9.18;3.35;;;18.50;95.10;;;17.21;83.52;98259.19;10359741;28;96638;-85
2023/10/21 00:54:25;;;;;;;5.38;2.53;;;18.50;95.30;;;17.16;83.10;98267.25;10356421;28;97349;-85
2023/10/21 00:59:28;;;;;;;10.15;2.83;;;18.40;95.40;;;17.14;83.98;98280.09;10329765;28;96830;-84
2023/10/21 01:04:32;;;;;;;9.23;3.05;;;18.40;95.60;;;17.12;84.32;98287.59;10326564;28;98372;-84
2023/10/21 01:09:36;;;;;;;6.78;2.95;;;18.40;95.70;;;17.11;83.88;98292.16;10319571;28;96867;-84
2023/10/21 01:14:39;;;;;;;16.70;3.92;;;18.30;95.70;;;17.13;83.88;98290.03;10341885;28;96826;-84
2023/10/21 01:19:43;;;;;;;6.78;2.40;;;18.40;95.70;;;17.07;83.91;98279.50;10303322;28;96559;-84
2023/10/21 01:24:47;;;;;;;8.57;2.70;;;18.30;95.80;;;17.02;84.54;98287.50;10316980;28;97757;-85
2023/10/21 01:29:50;;;;;;;5.32;2.53;;;18.30;95.90;;;16.95;85.51;98308.38;10309338;28;97461;-85
2023/10/21 01:34:54;;;;;;;9.88;3.08;;;18.20;96.20;;;16.85;85.41;98307.25;10325380;28;96711;-85
2023/10/21 01:39:57;;;;;;;8.40;3.28;;;18.10;96.40;;;16.80;86.33;98301.81;10322173;28;96985;-85
2023/10/21 01:45:01;;;;;;;9.48;2.97;;;18.10;96.60;;;16.80;86.05;98314.44;10332559;28;96579;-85
2023/10/21 01:50:09;;;;;;;7.55;2.70;;;18.00;96.60;;;16.74;86.11;98318.94;10302640;28;98351;-84
2023/10/21 01:55:15;;;;;;;8.00;3.30;;;18.00;96.70;;;16.73;86.61;98309.28;10328337;28;96611;-85
2023/10/21 02:00:19;;;;;;;12.07;3.10;;;18.00;96.80;;;16.66;87.23;98318.53;10321165;28;96538;-84
2023/10/21 02:05:24;;;;;;;9.82;3.08;;;17.90;96.90;;;16.63;88.07;98319.88;10337360;28;96943;-85
2023/10/21 02:10:27;;;;;;;5.97;3.13;;;17.90;97.10;;;16.62;88.23;98325.50;10352601;28;96701;-84
2023/10/21 02:15:36;;;;;;;6.25;3.40;;;17.90;97.20;;;16.58;87.86;98338.56;10347574;28;96578;-85
2023/10/21 02:20:40;;;;;;;7.15;2.50;;;17.80;97.30;;;16.54;88.30;98361.59;10299589;28;97439;-85
2023/10/21 02:25:43;;;;;;;5.07;2.53;;;17.80;97.40;;;16.54;88.45;98366.94;10329878;28;96580;-85
2023/10/21 02:30:47;;;;;;;8.35;2.80;;;17.80;97.60;;;16.48;88.96;98376.78;10322048;28;98172;-84
2023/10/21 02:35:52;;;;;;;11.13;3.88;;;17.80;97.80;;;16.48;89.83;98378.66;10316522;28;96572;-84
2023/10/21 02:40:56;;;;;;;7.60;3.83;;;17.70;98.00;;;16.48;89.89;98357.22;10349328;28;97418;-85
2023/10/21 02:46:10;;;;;;;10.82;2.92;;;17.70;98.10;;;16.53;89.80;98349.25;10333638;28;96996;-85
2023/10/21 02:51:17;;;;;;;8.45;3.20;;;17.80;98.20;;;16.56;89.39;98338.03;10352479;28;96540;-85
2023/10/21 02:56:21;;;;;;;8.60;2.72;;;17.80;98.20;;;16.62;88.90;98347.75;10326377;28;96541;-84
2023/10/21 03:01:25;;;;;;;7.35;2.28;;;17.90;98.20;;;16.71;88.46;98351.63;10342371;28;96484;-84
2023/10/21 03:06:29;;;;;;;9.77;2.40;;;18.00;98.20;;;16.75;88.30;98379.56;10345098;28;96762;-85
2023/10/21 03:11:33;;;;;;;6.07;3.42;;;18.00;98.10;;;16.81;87.33;98359.78;10335972;28;98358;-85
2023/10/21 03:16:37;;;;;;;7.47;3.28;;;18.10;98.10;;;16.88;87.28;98362.25;10316636;28;97655;-85
2023/10/21 03:21:41;;;;;;;5.93;2.47;;;18.10;98.00;;;16.94;86.51;98365.78;10322375;28;96740;-85
2023/10/21 03:26:47;;;;;;;4.72;2.22;;;18.20;98.00;;;17.02;86.09;98376.88;10328356;28;98367;-85
2023/10/21 03:31:51;;;;;;;6.60;2.17;;;18.20;97.90;;;17.22;85.60;98387.00;10306031;28;97601;-85
2023/10/21 03:36:54;;;;;;;9.93;3.15;;;18.40;98.00;;;17.46;84.10;98386.66;10315514;28;96569;-85
2023/10/21 03:41:58;;;;;;;9.35;2.55;;;18.60;97.70;;;17.66;81.79;98400.25;10350538;28;96700;-85
2023/10/21 03:47:02;;;;;;;8.95;2.58;;;18.80;97.20;;;17.81;80.40;98384.28;10326995;28;98626;-84
2023/10/21 03:52:06;;;;;;;8.63;2.63;;;19.00;96.90;;;17.87;79.87;98388.59;10303992;28;96481;-84
2023/10/21 03:57:10;;;;;;;8.32;2.38;;;19.10;96.70;;;17.94;80.50;98388.38;10319698;28;98791;-83
2023/10/21 04:02:13;;;;;;;10.73;2.15;;;19.10;96.70;;;18.11;80.68;98410.53;10303572;28;98191;-84
2023/10/21 04:07:17;;;;;;;5.60;1.58;;;19.20;96.80;;;18.53;79.93;98419.56;10333385;28;97737;-84
2023/10/21 04:12:20;;;;;;;6.00;2.28;;;19.60;97.10;;;19.15;77.11;98426.81;10342864;28;96517;-84
2023/10/21 04:17:24;;;;;;;11.05;2.17;;;20.10;96.40;;;19.52;75.88;98432.78;10317623;28;98150;-84
2023/10/21 04:22:27;;;;;;;7.00;1.83;;;20.50;96.00;;;19.76;75.01;98432.25;10350698;28;98370;-83
2023/10/21 04:27:31;;;;;;;11.35;2.40;;;20.80;95.60;;;19.99;74.09;98447.88;10335725;28;96989;-82
2023/10/21 04:32:34;;;;;;;4.50;1.80;;;21.00;95.40;;;20.09;73.84;98462.41;10314323;28;99199;-82
2023/10/21 04:37:38;;;;;;;6.72;2.40;;;21.20;95.20;;;20.05;74.99;98457.56;10323098;28;96821;-82
2023/10/21 04:42:43;;;;;;;6.45;2.17;;;21.20;95.30;;;20.00;77.24;98457.56;10320385;28;97864;-85
2023/10/21 04:47:48;;;;;;;4.72;1.80;;;21.20;95.80;;;19.87;78.86;98470.81;10286172;28;98141;-84
2023/10/21 04:52:52;;;;;;;8.13;1.70;;;21.00;96.20;;;19.72;79.31;98482.38;10331813;28;97423;-84
2023/10/21 04:57:55;;;;;;;5.82;1.88;;;20.90;96.40;;;19.65;78.88;98514.19;10324048;28;96543;-82
2023/10/21 05:02:59;;;;;;;5.88;1.33;;;20.80;96.40;;;19.61;77.93;98510.38;10331837;28;97639;-82
2023/10/21 05:08:03;;;;;;;4.28;1.15;;;20.70;96.30;;;19.56;78.23;98529.22;10340390;28;96553;-83
2023/10/21 05:13:07;;;;;;;5.68;1.10;;;20.70;96.20;;;19.44;79.05;98518.72;10321441;28;98375;-83
2023/10/21 05:18:11;;;;;;;3.63;1.70;;;20.60;96.40;;;19.30;80.67;98510.31;10334018;28;96862;-83
2023/10/21 05:23:15;;;;;;;6.15;1.10;;;20.50;96.90;;;19.13;82.32;98498.94;10304998;28;96566;-82
2023/10/21 05:28:19;;;;;;;3.97;1.00;;;20.30;97.20;;;18.96;82.42;98493.78;10301677;28;96564;-83
2023/10/21 05:33:23;;;;;;;5.15;0.73;;;20.20;97.30;;;18.81;82.05;98504.47;10338130;28;99093;-83
2023/10/21 05:38:27;;;;;;;2.45;0.55;;;20.00;97.40;;;18.70;82.73;98509.00;10322271;28;99293;-83
2023/10/21 05:43:31;;;;;;;5.03;1.05;;;19.90;97.50;;;18.64;82.94;98523.47;10334816;28;96609;-83
2023/10/21 05:48:34;;;;;;;4.63;0.82;;;19.80;97.60;;;18.56;83.79;98540.09;10291459;28;96691;-83
2023/10/21 05:53:38;;;;;;;2.90;0.70;;;19.70;97.70;;;18.50;84.74;98565.34;10315670;28;98611;-83
2023/10/21 05:58:42;;;;;;;4.35;0.88;;;19.70;97.90;;;18.35;87.51;98577.63;10327367;28;97603;-84
2023/10/21 06:03:46;;;;;;;4.75;0.90;;;19.60;98.10;;;18.12;90.13;98613.75;10314882;28;96719;-84
2023/10/21 06:08:50;;;;;;;3.28;0.95;;;19.40;98.90;;;17.86;93.45;98614.53;10341128;28;97437;-85
2023/10/21 06:13:54;;;;;;;5.38;1.10;;;19.10;99.90;;;17.68;94.99;98629.09;10334496;28;96623;-84
2023/10/21 06:18:57;;;;;;;3.83;1.02;;;18.90;99.90;;;17.49;97.09;98647.44;10356293;28;96762;-84
2023/10/21 06:24:03;;;;;;;3.90;0.95;;;18.70;99.90;;;17.38;99.26;98667.97;10365656;28;97006;-84
2023/10/21 06:29:08;;;;;;;1.52;0.45;;;18.60;99.90;;;17.29;100.00;98677.53;10345265;28;97755;-85
2023/10/21 06:34:12;;;;;;;4.05;0.60;;;18.50;99.90;;;17.21;100.00;98686.00;10339068;28;98203;-85
2023/10/21 06:39:16;;;;;;;4.78;0.60;;;18.40;99.90;;;17.17;100.00;98670.66;10318556;28;96720;-84
2023/10/21 06:44:19;;;;;;;5.38;0.90;;;18.40;99.90;;;17.14;100.00;98682.69;10316454;28;98833;-84
2023/10/21 06:49:23;;;;;;;4.90;1.15;;;18.40;99.90;;;17.12;100.00;98701.72;10325589;28;97047;-84
2023/10/21 06:54:27;;;;;;;3.33;0.85;;;18.30;99.90;;;17.16;100.00;98691.31;10320230;28;97708;-83
2023/10/21 06:59:32;;;;;;;3.42;0.93;;;18.30;99.90;;;17.22;100.00;98703.75;10320423;28;98058;-84
2023/10/21 07:04:36;;;;;;;2.53;0.80;;;18.40;99.90;;;17.24;100.00;98704.31;10339227;28;96665;-84
2023/10/21 07:09:41;;;;;;;3.15;0.73;;;18.40;99.90;;;17.27;100.00;98703.81;10319626;28;96759;-84
2023/10/21 07:14:45;;;;;;;5.65;0.80;;;18.40;99.90;;;17.32;100.00;98721.84;10332230;28;97042;-84
2023/10/21 07:19:49;;;;;;;5.85;1.10;;;18.40;99.90;;;17.33;100.00;98735.06;10322023;28;99170;-85
2023/10/21 07:24:57;;;;;;;2.70;0.80;;;18.50;99.90;;;17.37;100.00;98725.41;10318020;28;96543;-84
2023/10/21 07:30:03;;;;;;;2.35;0.95;;;18.60;99.90;;;17.40;100.00;98724.13;10310225;28;97489;-84
2023/10/21 07:35:07;;;;;;;2.38;0.50;;;18.60;99.90;;;17.43;100.00;98741.59;10325181;28;98690;-84
2023/10/21 07:40:12;;;;;;;1.65;0.60;;;18.60;99.90;;;17.49;100.00;98772.84;10324557;28;97580;-84
2023/10/21 07:45:15;;;;;;;4.88;0.80;;;18.60;99.90;;;17.51;100.00;98803.78;10304913;28;96669;-85
2023/10/21 07:50:19;;;;;;;4.65;0.80;;;18.70;99.90;;;17.53;100.00;98793.59;10357711;28;97717;-84
2023/10/21 07:55:24;;;;;;;3.33;0.70;;;18.70;99.90;;;17.57;100.00;98796.56;10338391;28;96601;-84
2023/10/21 08:00:28;;;;;;;1.95;0.85;;;18.80;99.90;;;17.57;100.00;98792.03;10325080;28;97272;-84
2023/10/21 08:05:32;;;;;;;2.58;0.70;;;18.80;99.90;;;17.60;100.00;98812.22;10317122;28;97516;-84
2023/10/21 08:10:36;;;;;;;2.53;0.63;;;18.80;99.90;;;17.65;100.00;98807.72;10347459;28;96562;-85
2023/10/21 08:15:39;;;;;;;5.00;0.60;;;18.80;99.90;;;17.74;100.00;98799.25;10335055;28;97350;-84
2023/10/21 08:20:43;;;;;;;4.63;1.17;;;18.90;99.90;;;17.79;99.72;98805.50;10327283;28;96620;-84
2023/10/21 08:25:46;;;;;;;3.53;0.77;;;19.00;99.90;;;17.87;98.54;98833.81;10327175;28;96666;-84
2023/10/21 08:30:50;;;;;;;1.98;0.60;;;19.00;99.90;;;17.94;98.07;98850.59;10298816;28;96781;-84
2023/10/21 08:35:54;;;;;;;3.97;1.00;;;19.10;99.90;;;18.04;97.99;98828.41;10313142;28;96606;-84
2023/10/21 08:40:58;;;;;;;2.70;0.52;;;19.20;99.90;;;18.11;96.48;98832.56;10312946;28;97178;-85
2023/10/21 08:46:02;;;;;;;2.10;0.65;;;19.30;99.90;;;18.16;95.74;98872.09;10329705;28;97896;-84
2023/10/21 08:51:09;;;;;;;2.00;0.57;;;19.30;99.90;;;18.17;95.16;98862.97;10323621;28;98604;-85
2023/10/21 08:56:14;;;;;;;3.65;0.60;;;19.40;99.90;;;18.20;95.13;98851.75;10331849;28;97210;-85
2023/10/21 09:01:18;;;;;;;3.30;0.43;;;19.40;99.90;;;18.27;95.23;98844.28;10308927;28;97689;-84
2023/10/21 09:06:22;;;;;;;4.05;0.90;;;19.40;99.90;;;18.41;95.33;98868.91;10337243;28;98169;-84
2023/10/21 09:11:31;;;;;;;1.98;0.52;;;19.50;99.90;;;18.49;94.09;98881.94;10336111;28;97361;-86
2023/10/21 09:16:34;;;;;;;1.55;0.52;;;19.70;99.90;;;18.54;94.16;98873.13;10330377;28;98627;-85
2023/10/21 09:21:41;;;;;;;4.43;0.90;;;19.70;99.90;;;18.61;94.17;98887.19;10300514;28;96566;-85
2023/10/21 09:26:47;;;;;;;2.78;0.57;;;19.80;99.90;;;18.58;92.50;98887.69;10299782;28;96479;-85
2023/10/21 09:31:56;;;;;;;4.50;1.25;;;19.80;99.90;;;18.58;91.95;98887.69;10309169;28;96628;-86
2023/10/21 09:37:06;;;;;;;4.97;1.23;;;19.80;99.90;;;18.60;92.19;98902.53;10354631;28;96607;-86
2023/10/21 09:42:10;;;;;;;2.67;1.10;;;19.80;99.90;;;18.65;91.66;98899.06;10298716;28;96481;-85
2023/10/21 09:47:15;;;;;;;2.17;0.65;;;19.80;99.90;;;18.67;90.70;98907.75;10298750;28;96525;-86
2023/10/21 09:52:23;;;;;;;1.27;0.40;;;19.90;99.90;;;18.74;90.73;98911.03;10297654;28;96566;-86
2023/10/21 09:57:28;;;;;;;2.03;0.30;;;19.90;99.90;;;18.83;89.95;98903.31;10314604;28;97579;-86
2023/10/21 10:02:32;;;;;;;3.55;0.50;;;20.00;99.90;;;18.91;89.79;98882.16;10282920;28;97246;-85
2023/10/21 10:07:39;;;;;;;3.17;1.05;;;20.10;99.90;;;18.94;90.00;98892.41;10298096;28;96552;-85
2023/10/21 10:13:06;;;;;;;0.90;0.40;;;20.10;99.90;;;19.05;90.24;98892.50;10283342;28;96534;-85
2023/10/21 10:18:19;;;;;;;1.80;0.30;;;20.20;99.90;;;19.16;89.80;98910.41;10308278;28;96564;-86
2023/10/21 10:23:28;;;;;;;1.73;0.50;;;20.30;99.90;;;19.26;88.94;98891.66;10339491;28;96633;-85
2023/10/21 10:28:32;;;;;;;3.42;0.57;;;20.40;99.90;;;19.39;87.78;98880.44;10336873;28;96531;-86
2023/10/21 10:33:35;;;;;;;0.82;0.30;;;20.50;99.90;;;19.55;86.92;98875.16;10334940;28;96745;-87
2023/10/21 10:38:46;;;;;;;31.50;14.73;;;20.70;99.90;;;19.60;85.78;98872.53;10280654;28;96627;-85
2023/10/21 10:44:01;;;;;;;4.95;1.77;;;20.70;99.90;;;19.66;86.14;98858.81;10308982;28;96913;-86
2023/10/21 10:49:08;;;;;;;3.60;0.40;;;20.80;99.90;;;19.81;84.80;98860.81;10302512;28;96709;-86
2023/10/21 10:54:17;;;;;;;1.23;0.20;;;21.00;99.90;;;19.92;84.60;98870.59;10328798;28;96581;-86
2023/10/21 10:59:23;;;;;;;4.97;1.63;;;21.10;99.90;;;20.00;84.46;98896.25;10295562;28;96652;-85
2023/10/21 11:04:32;;;;;;;3.40;0.70;;;21.10;99.90;;;19.98;82.65;98858.75;10281430;28;96411;-86
2023/10/21 11:09:36;;;;;;;3.40;0.83;;;21.20;99.90;;;20.00;81.70;98899.75;10296840;28;96612;-87
2023/10/21 11:14:41;;;;;;;3.88;1.02;;;21.20;99.90;;;20.08;82.87;98898.44;10336256;28;96518;-86
2023/10/21 11:19:45;;;;;;;6.57;2.17;;;21.30;99.90;;;20.18;82.26;98908.47;10348998;28;96594;-86
2023/10/21 11:24:50;;;;;;;3.25;1.63;;;21.40;99.90;;;20.24;81.86;98920.91;10352970;28;96528;-85
2023/10/21 11:29:53;;;;;;;3.15;0.88;;;21.50;99.90;;;20.36;81.83;98926.09;10316960;28;98280;-86
2023/10/21 11:35:06;;;;;;;3.17;0.80;;;21.60;99.90;;;20.60;81.15;98929.22;10309804;28;96684;-86
2023/10/21 11:40:11;;;;;;;3.88;0.60;;;21.90;99.90;;;20.64;79.37;98941.91;10315146;28;96507;-86
2023/10/21 11:45:15;;;;;;;0.70;0.40;;;21.90;99.10;;;20.55;78.71;98938.09;10317745;28;96529;-86
2023/10/21 11:50:20;;;;;;;6.60;1.23;;;21.80;98.90;;;20.52;79.68;98952.94;10313658;28;96665;-85
2023/10/21 12:11:50;;;;;;;1.48;0.47;;;21.80;98.90;;;20.53;79.09;98975.34;10295041;28;96588;-85
2023/10/21 12:18:09;;;;;;;3.53;0.90;;;21.70;98.80;;;20.43;79.64;98973.34;10295204;28;96859;-85
2023/10/21 12:22:53;;;;;;;2.13;0.38;;;21.60;98.90;;;20.35;79.39;98957.66;10296191;28;96636;-86
2023/10/21 12:28:13;;;;;;;5.15;1.40;;;21.60;98.90;;;20.32;79.24;98968.97;10297351;28;97142;-85
2023/10/21 12:43:35;;;;;;;2.03;0.60;;;21.50;98.90;;;20.27;79.80;99002.16;10341652;28;96516;-85
2023/10/21 12:48:41;;;;;;;1.45;0.52;;;21.40;98.90;;;20.24;78.34;98997.25;10312219;28;97176;-85
2023/10/21 12:53:44;;;;;;;7.03;2.20;;;21.40;98.60;;;20.20;77.91;98998.03;10300804;28;96355;-85
2023/10/21 12:58:48;;;;;;;6.40;2.00;;;21.40;98.50;;;20.19;78.16;99023.38;10300613;28;96458;-86
2023/10/21 13:03:52;;;;;;;4.43;1.42;;;21.30;98.40;;;20.12;77.26;99017.41;10328947;28;96649;-85
2023/10/21 13:08:56;;;;;;;13.68;6.22;;;21.30;98.30;;;20.02;77.35;99018.94;10299852;28;96520;-85
2023/10/21 13:14:00;;;;;;;2.47;0.63;;;21.20;98.20;;;19.93;76.76;99017.00;10321760;28;96950;-85
2023/10/21 13:19:04;;;;;;;2.70;0.93;;;21.10;97.90;;;19.83;77.87;99012.31;10351786;28;96443;-87
2023/10/21 13:24:08;;;;;;;1.33;0.30;;;21.00;98.10;;;19.74;77.58;99008.47;10299984;28;96493;-85
2023/10/21 13:29:12;;;;;;;3.60;1.10;;;20.90;98.10;;;19.60;77.82;98999.97;10339846;28;97155;-85
2023/10/21 13:34:16;;;;;;;2.20;0.77;;;20.80;98.10;;;19.48;78.43;99000.13;10366440;28;96508;-85
2023/10/21 13:39:19;;;;;;;4.63;1.50;;;20.70;98.20;;;19.37;79.15;98984.94;10300334;28;96385;-85
2023/10/21 13:44:23;;;;;;;13.55;6.68;;;20.60;98.30;;;19.32;79.91;98984.09;10300180;28;96640;-85
2023/10/21 13:49:28;;;;;;;2.72;1.00;;;20.50;98.40;;;19.30;80.34;98970.03;10332416;28;97550;-85
2023/10/21 13:54:32;;;;;;;1.95;0.80;;;20.50;98.50;;;19.29;80.67;98974.59;10297741;28;97413;-85
2023/10/21 13:59:36;;;;;;;2.40;0.77;;;20.50;98.60;;;19.25;80.56;98977.00;10282938;28;96501;-85
2023/10/21 14:04:41;;;;;;;2.15;0.70;;;20.40;98.60;;;19.21;80.96;98953.53;10301861;28;96577;-85
2023/10/21 14:09:45;;;;;;;12.38;4.63;;;20.50;98.80;;;19.19;81.28;98947.56;10339307;28;96459;-85
2023/10/21 14:14:48;;;;;;;11.43;4.38;;;20.40;98.80;;;19.14;81.16;98956.44;10300388;28;96558;-85
2023/10/21 14:19:53;;;;;;;4.22;2.17;;;20.40;98.80;;;19.14;81.39;98966.41;10318285;28;97055;-85
2023/10/21 14:24:57;;;;;;;4.50;0.93;;;20.30;98.80;;;19.09;81.86;98971.72;10371196;28;96516;-85
2023/10/21 14:30:09;;;;;;;1.50;0.68;;;20.30;98.90;;;19.05;82.71;98986.75;10343210;28;96736;-85
2023/10/21 14:35:14;;;;;;;10.60;4.63;;;20.30;99.00;;;19.04;83.12;98993.19;10297599;28;96489;-85
2023/10/21 14:40:17;;;;;;;4.32;2.10;;;20.30;99.10;;;19.03;83.96;98983.50;10350352;28;98473;-85
2023/10/21 14:45:21;;;;;;;2.55;1.10;;;20.30;99.20;;;18.97;84.39;98986.13;10353185;28;96531;-85
2023/10/21 14:50:26;;;;;;;5.78;2.30;;;20.30;99.40;;;18.93;84.43;99003.84;10332396;28;96864;-85
2023/10/21 14:55:32;;;;;;;1.60;0.50;;;20.20;99.40;;;18.84;84.42;98997.28;10280629;28;96556;-85
2023/10/21 15:00:53;;;;;;;4.18;0.60;;;20.20;99.50;;;18.74;84.32;99001.72;10283677;28;96491;-85
2023/10/21 15:05:59;;;;;;;1.42;0.52;;;20.10;99.60;;;18.62;84.96;98991.84;10322326;28;98496;-85
2023/10/21 15:11:03;;;;;;;1.00;0.38;;;19.90;99.70;;;18.50;85.59;98985.78;10353254;28;96426;-85
2023/10/21 15:16:08;;;;;;;1.25;0.50;;;19.80;99.90;;;18.42;86.42;98996.97;10351671;28;96450;-85
2023/10/21 15:21:12;;;;;;;2.72;0.80;;;19.70;99.90;;;18.33;87.49;98996.56;10351402;28;96585;-84
2023/10/21 15:26:17;;;;;;;2.30;0.60;;;19.60;99.90;;;18.28;87.77;99006.44;10335209;28;96858;-84
2023/10/21 15:31:20;;;;;;;2.40;1.02;;;19.60;99.90;;;18.19;88.74;99012.25;10301574;28;98392;-84
2023/10/21 15:36:25;;;;;;;3.50;0.90;;;19.50;99.90;;;18.11;89.17;99007.28;10338009;28;96624;-84
2023/10/21 15:41:29;;;;;;;1.67;0.75;;;19.40;99.90;;;18.06;89.65;99027.91;10323507;28;98202;-85
2023/10/21 15:46:33;;;;;;;5.38;1.95;;;19.40;99.90;;;17.97;90.81;99019.41;10330638;28;98417;-85
2023/10/21 15:51:37;;;;;;;6.20;2.13;;;19.30;99.90;;;17.92;90.90;99032.78;10378446;28;96636;-85
2023/10/21 15:56:43;;;;;;;3.83;1.95;;;19.30;99.90;;;17.86;91.74;99058.75;10307335;28;97664;-85
2023/10/21 16:01:46;;;;;;;4.88;2.10;;;19.20;99.90;;;17.83;92.32;99063.81;10307854;28;98381;-84
2023/10/21 16:06:51;;;;;;;7.18;2.53;;;19.10;99.90;;;17.74;93.17;99070.63;10311956;28;97308;-85
2023/10/21 16:11:55;;;;;;;7.03;3.88;;;19.10;99.90;;;17.70;93.53;99081.03;10328921;28;96640;-85
2023/10/21 16:17:01;;;;;;;8.55;3.75;;;19.00;99.90;;;17.62;94.00;99082.19;10342373;28;96665;-85
2023/10/21 16:22:04;;;;;;;7.55;3.78;;;18.90;99.90;;;17.56;94.28;99085.03;10326481;28;96638;-85
2023/10/21 16:27:09;;;;;;;8.40;4.45;;;18.90;99.90;;;17.53;95.15;99082.84;10346752;28;96550;-85
2023/10/21 16:32:12;;;;;;;6.63;3.45;;;18.80;99.90;;;17.49;95.63;99089.75;10310823;28;97041;-85
2023/10/21 16:37:16;;;;;;;6.60;4.25;;;18.80;99.90;;;17.41;95.83;99098.19;10332176;28;96714;-85
2023/10/21 16:42:20;;;;;;;8.75;4.15;;;18.70;99.90;;;17.35;96.46;99108.84;10323736;28;97130;-85
2023/10/21 16:47:23;;;;;;;5.35;3.10;;;18.60;99.90;;;17.30;97.88;99124.03;10315878;28;96533;-85
2023/10/21 16:52:27;;;;;;;2.17;1.23;;;18.60;99.90;;;17.23;98.56;99136.78;10332409;28;97784;-85
2023/10/21 16:57:32;;;;;;;5.18;2.25;;;18.50;99.90;;;17.17;99.85;99151.94;10333222;28;97596;-85
2023/10/21 17:02:45;;;;;;;4.47;1.73;;;18.40;99.90;;;17.13;100.00;99156.16;10314392;28;96871;-84
2023/10/21 17:08:04;;;;;;;4.50;2.53;;;18.40;99.90;;;17.09;100.00;99160.34;10309242;28;98085;-84
2023/10/21 17:13:09;;;;;;;5.75;1.33;;;18.40;99.90;;;17.05;100.00;99162.69;10297815;28;96473;-84
2023/10/21 17:18:13;;;;;;;4.47;1.67;;;18.30;99.90;;;16.98;100.00;99150.47;10291671;28;97285;-85
2023/10/21 17:23:20;;;;;;;4.30;1.40;;;18.30;99.90;;;16.92;100.00;99146.03;10332447;28;101210;-85
2023/10/21 17:28:26;;;;;;;3.95;1.70;;;18.20;99.90;;;16.86;100.00;99163.88;10338313;28;96729;-85
2023/10/21 17:33:29;;;;;;;8.48;1.80;;;18.10;99.90;;;16.75;100.00;99145.91;10328146;28;98572;-87
2023/10/21 17:38:52;;;;;;;2.95;1.40;;;18.10;99.90;;;16.66;100.00;99149.97;10325856;28;97005;-87
2023/10/21 17:43:56;;;;;;;2.90;1.50;;;18.00;99.90;;;16.59;100.00;99163.47;10337258;28;97454;-89
2023/10/21 17:49:00;;;;;;;3.17;1.70;;;17.90;99.90;;;16.50;100.00;99167.56;10328001;28;98396;-87
2023/10/21 17:54:04;;;;;;;2.40;1.50;;;17.80;99.90;;;16.41;100.00;99168.94;10343789;28;98160;-87
2023/10/21 17:59:08;;;;;;;4.10;1.45;;;17.70;99.90;;;16.33;100.00;99176.28;10324392;28;96888;-88
2023/10/21 18:04:12;;;;;;;3.95;1.67;;;17.70;99.90;;;16.26;100.00;99177.44;10317098;28;98563;-88
2023/10/21 18:09:16;;;;;;;5.25;1.63;;;17.60;99.90;;;16.20;100.00;99181.84;10331417;28;98855;-88
2023/10/21 18:14:19;;;;;;;5.38;2.03;;;17.50;99.90;;;16.16;100.00;99169.94;10312632;28;98029;-88
2023/10/21 18:19:24;;;;;;;3.42;1.80;;;17.50;99.90;;;16.11;100.00;99159.09;10306500;28;98119;-89
2023/10/21 18:24:27;;;;;;;6.35;2.88;;;17.40;99.90;;;16.08;100.00;99143.47;10314371;28;98274;-88
2023/10/21 18:29:31;;;;;;;4.95;2.45;;;17.40;99.90;;;16.03;100.00;99135.31;10334214;28;98291;-87
2023/10/21 18:34:39;;;;;;;9.57;3.00;;;17.40;99.90;;;15.97;100.00;99134.34;10332046;28;98807;-89
2023/10/21 18:39:43;;;;;;;7.95;3.63;;;17.30;99.90;;;15.93;100.00;99137.72;10304611;28;97608;-90
2023/10/21 18:44:47;;;;;;;9.32;3.88;;;17.30;99.90;;;15.90;100.00;99140.84;10319623;28;97931;-89
2023/10/21 18:49:50;;;;;;;8.35;2.67;;;17.20;99.90;;;15.88;100.00;99145.59;10326902;28;96627;-89
2023/10/21 18:54:54;;;;;;;7.30;3.70;;;17.20;99.90;;;15.81;100.00;99144.88;10320872;28;97548;-88
2023/10/21 18:59:58;;;;;;;8.75;4.15;;;17.10;99.90;;;15.78;100.00;99144.31;10346135;27;97401;-88
2023/10/21 19:05:03;;;;;;;8.07;4.55;;;17.10;99.90;;;15.76;100.00;99141.03;10341445;28;96819;-88
2023/10/21 19:10:08;;;;;;;7.05;3.72;;;17.10;99.90;;;15.72;100.00;99142.53;10327893;28;99275;-88
2023/10/21 19:15:11;;;;;;;10.68;5.45;;;17.10;99.90;;;15.74;100.00;99142.31;10327413;28;97298;-89
2023/10/21 19:20:16;;;;;;;9.27;5.10;;;17.00;99.90;;;15.73;100.00;99138.81;10326345;28;96682;-89
2023/10/21 19:25:23;;;;;;;17.55;8.15;;;17.00;99.90;;;15.72;100.00;99147.91;10331300;28;96647;-89
2023/10/21 19:30:27;;;;;;;7.00;4.38;;;17.00;99.90;;;15.73;100.00;99152.22;10333362;28;96777;-88
2023/10/21 19:35:30;;;;;;;10.10;4.32;;;17.00;99.90;;;15.71;100.00;99150.78;10309135;28;96977;-90
2023/10/21 19:40:37;;;;;;;4.95;3.00;;;17.00;99.90;;;15.70;100.00;99136.56;10323020;28;98403;-89
2023/10/21 19:45:43;;;;;;;4.95;2.40;;;17.00;99.90;;;15.68;100.00;99141.34;10341917;28;96782;-88
2023/10/21 19:50:47;;;;;;;13.32;4.05;;;17.00;99.90;;;15.64;100.00;99142.03;10308254;28;97066;-88
2023/10/21 19:55:55;;;;;;;9.55;3.67;;;17.00;99.90;;;15.60;100.00;99125.56;10317964;28;96837;-90
2023/10/21 20:01:08;;;;;;;10.88;4.47;;;16.90;99.90;;;15.61;100.00;99123.72;10299658;28;98501;-89
2023/10/21 20:06:12;;;;;;;9.20;4.93;;;16.90;99.90;;;15.60;100.00;99108.69;10327587;28;97506;-88
2023/10/21 20:11:19;;;;;;;8.02;4.47;;;16.90;99.90;;;15.60;100.00;99098.81;10319864;28;97603;-88
2023/10/21 20:16:22;;;;;;;9.00;4.40;;;16.90;99.90;;;15.60;100.00;99088.09;10349871;28;97290;-88
2023/10/21 20:21:28;;;;;;;9.25;3.88;;;16.90;99.90;;;15.56;100.00;99062.81;10336353;28;96663;-88
2023/10/21 20:26:32;;;;;;;6.43;3.28;;;16.90;99.90;;;15.57;100.00;99061.75;10343800;28;96628;-88
2023/10/21 20:31:35;;;;;;;7.90;3.30;;;16.90;99.90;;;15.61;100.00;99046.06;10315057;28;96750;-89
2023/10/21 20:36:39;;;;;;;9.95;2.97;;;16.90;99.90;;;15.60;100.00;99031.03;10316376;28;96963;-87
2023/10/21 20:41:44;;;;;;;7.03;3.38;;;16.90;99.90;;;15.61;100.00;99043.38;10311915;28;96766;-88
2023/10/21 20:46:49;;;;;;;6.43;3.20;;;16.90;99.90;;;15.61;100.00;99054.09;10317479;28;98102;-89
2023/10/21 20:51:53;;;;;;;13.35;3.30;;;16.90;99.90;;;15.60;100.00;99069.34;10308860;28;97516;-88
2023/10/21 20:56:58;;;;;;;8.27;3.40;;;16.90;99.90;;;15.64;100.00;99062.50;10325665;28;96747;-89
2023/10/21 21:02:03;;;;;;;6.70;3.00;;;16.90;99.90;;;15.65;100.00;99061.47;10335184;28;97868;-88
2023/10/21 21:07:07;;;;;;;7.25;3.42;;;16.90;99.90;;;15.68;100.00;99061.00;10324747;28;97619;-88
2023/10/21 21:12:11;;;;;;;5.70;3.15;;;16.90;99.90;;;15.68;100.00;99063.69;10342438;28;96628;-87
2023/10/21 21:17:15;;;;;;;8.02;2.67;;;17.00;99.90;;;15.69;100.00;99053.78;10308383;28;98173;-89
2023/10/21 21:22:19;;;;;;;7.88;2.85;;;17.00;99.90;;;15.69;100.00;99043.88;10333770;28;96735;-87
2023/10/21 21:27:23;;;;;;;5.90;3.10;;;17.00;99.90;;;15.65;100.00;99049.91;10307312;28;97000;-88
2023/10/21 21:32:27;;;;;;;7.90;3.67;;;17.00;99.90;;;15.64;100.00;99033.03;10345970;28;98148;-87